Terminal Aerodrome Forecast
Issued by NWS

Home | Current Version | Previous Version | Text Only | Print | Product List | Glossary On
Versions: 1 2 3 4 5 6 7 8 9 10 11 12 13 14 15 16
000
FTUS41 KALY 301120
TAFPSF
TAF
KPSF 301120Z 3012/3112 21004KT P6SM SCT060 BKN250
      TEMPO 3012/3013 4SM BR FEW004
     FM301400 21006KT P6SM BKN035
     FM301900 24007KT 3SM SHRA BR VCTS SCT012 OVC035CB
     FM302200 24004KT P6SM SCT040
     FM310800 VRB02KT 2SM BR BKN004=

USA.gov is the U.S. government's official web portal to all federal, state and local government web resources and services.